createdAt,value
2018-04-15T00:01:43.621Z,4.80
2018-04-15T00:04:11.080Z,4.43
2018-04-15T00:06:38.537Z,4.17
2018-04-15T00:09:05.969Z,3.93
2018-04-15T00:11:33.417Z,4.27
2018-04-15T00:14:01.613Z,4.80
2018-04-15T00:16:29.057Z,4.53
2018-04-15T00:18:57.269Z,4.87
2018-04-15T00:21:24.706Z,5.13
2018-04-15T00:23:52.153Z,3.93
2018-04-15T00:26:19.590Z,4.67
2018-04-15T00:28:47.810Z,4.70
2018-04-15T00:31:15.250Z,4.43
2018-04-15T00:33:42.693Z,4.60
2018-04-15T00:36:10.894Z,4.00
2018-04-15T00:38:38.343Z,4.30
2018-04-15T00:41:05.777Z,4.30
2018-04-15T00:43:33.985Z,3.83
2018-04-15T00:46:01.422Z,4.50
2018-04-15T00:48:28.905Z,4.23
2018-04-15T00:50:57.071Z,4.63
2018-04-15T00:53:24.513Z,4.73
2018-04-15T00:55:51.950Z,4.80
2018-04-15T00:58:20.170Z,4.90
2018-04-15T01:00:47.601Z,4.90
2018-04-15T01:03:15.049Z,4.80
2018-04-15T01:05:42.492Z,4.80
2018-04-15T01:08:10.706Z,4.87
2018-04-15T01:10:38.146Z,5.30
2018-04-15T01:13:05.590Z,4.90
2018-04-15T01:15:33.786Z,4.90
2018-04-15T01:18:01.225Z,5.00
2018-04-15T01:20:29.438Z,5.30
2018-04-15T01:22:56.871Z,6.40
2018-04-15T01:25:24.313Z,5.83
2018-04-15T01:27:51.753Z,6.10
2018-04-15T01:30:19.966Z,7.20
2018-04-15T01:32:47.407Z,6.97
2018-04-15T01:35:14.849Z,6.70
2018-04-15T01:37:43.059Z,6.83
2018-04-15T01:40:10.513Z,7.10
2018-04-15T01:42:37.945Z,6.47
2018-04-15T01:45:06.166Z,7.00
2018-04-15T01:47:33.602Z,6.17
2018-04-15T01:50:01.050Z,5.90
2018-04-15T01:52:28.499Z,6.40
2018-04-15T01:54:56.718Z,6.43
2018-04-15T01:57:24.145Z,6.20
2018-04-15T01:59:51.593Z,6.17
2018-04-15T02:02:19.026Z,6.07
2018-04-15T02:04:47.242Z,5.73
2018-04-15T02:07:14.673Z,5.73
2018-04-15T02:09:42.107Z,5.27
2018-04-15T02:12:10.322Z,5.77
2018-04-15T02:14:37.769Z,6.20
2018-04-15T02:17:05.221Z,6.00
2018-04-15T02:19:33.414Z,5.53
2018-04-15T02:22:00.861Z,5.57
2018-04-15T02:24:28.299Z,6.87
2018-04-15T02:26:56.509Z,6.20
2018-04-15T02:29:23.942Z,5.90
2018-04-15T02:31:51.389Z,5.93
2018-04-15T02:34:19.596Z,5.53
2018-04-15T02:36:47.050Z,4.73
2018-04-15T02:39:14.484Z,4.80
2018-04-15T02:41:41.926Z,4.13
2018-04-15T02:44:10.500Z,4.43
2018-04-15T02:46:37.951Z,4.53
2018-04-15T02:49:05.376Z,4.13
2018-04-15T02:51:32.817Z,4.53
2018-04-15T02:54:00.254Z,4.33
2018-04-15T02:56:27.706Z,3.93
2018-04-15T02:58:55.907Z,3.83
2018-04-15T03:01:23.350Z,4.47
2018-04-15T03:03:50.789Z,4.13
2018-04-15T03:06:18.996Z,4.07
2018-04-15T03:08:46.437Z,4.17
2018-04-15T03:11:13.894Z,4.63
2018-04-15T03:13:41.332Z,4.00
2018-04-15T03:16:09.529Z,4.23
2018-04-15T03:18:36.982Z,4.10
2018-04-15T03:21:04.430Z,3.80
2018-04-15T03:23:31.878Z,4.07
2018-04-15T03:26:00.079Z,4.07
2018-04-15T03:28:27.544Z,4.83
2018-04-15T03:30:54.973Z,4.27
2018-04-15T03:33:22.424Z,4.40
2018-04-15T03:35:50.622Z,4.13
2018-04-15T03:38:18.086Z,3.90
2018-04-15T03:40:45.530Z,3.53
2018-04-15T03:43:12.988Z,3.73
2018-04-15T03:45:40.431Z,3.73
2018-04-15T03:48:08.638Z,3.90
2018-04-15T03:50:36.075Z,3.57
2018-04-15T03:53:03.530Z,3.60
2018-04-15T03:55:31.001Z,3.57
2018-04-15T03:57:58.462Z,3.17
2018-04-15T04:00:25.905Z,2.97
2018-04-15T04:02:53.373Z,3.30
2018-04-15T04:05:20.818Z,3.43
2018-04-15T04:07:48.261Z,3.90
2018-04-15T04:10:16.474Z,4.10
2018-04-15T04:12:43.920Z,3.87
2018-04-15T04:15:11.396Z,3.63
2018-04-15T04:17:50.590Z,3.67
2018-04-15T04:20:30.749Z,3.23
2018-04-15T04:23:10.082Z,3.30
2018-04-15T04:25:49.390Z,3.23
2018-04-15T04:28:16.830Z,2.87
2018-04-15T04:30:44.273Z,3.83
2018-04-15T04:33:12.592Z,3.50
2018-04-15T04:35:39.996Z,3.03
2018-04-15T04:38:07.446Z,3.07
2018-04-15T04:40:34.891Z,3.33
2018-04-15T04:43:02.326Z,3.43
2018-04-15T04:45:30.537Z,2.70
2018-04-15T04:47:57.986Z,3.50
2018-04-15T04:50:25.445Z,3.80
2018-04-15T04:52:52.878Z,3.73
2018-04-15T04:55:20.325Z,3.03
2018-04-15T04:57:48.526Z,4.00
2018-04-15T05:00:15.983Z,3.50
2018-04-15T05:02:43.425Z,4.00
2018-04-15T05:05:11.621Z,4.20
2018-04-15T05:07:39.117Z,3.87
2018-04-15T05:10:06.530Z,4.10
2018-04-15T05:12:33.982Z,3.73
2018-04-15T05:15:01.422Z,3.77
2018-04-15T05:17:29.659Z,4.20
2018-04-15T05:19:57.096Z,4.30
2018-04-15T05:22:24.583Z,4.40
2018-04-15T05:24:52.027Z,4.03
2018-04-15T05:27:19.486Z,4.13
2018-04-15T05:29:46.921Z,3.90
2018-04-15T05:32:14.421Z,4.00
2018-04-15T05:34:41.886Z,4.27
2018-04-15T05:37:10.095Z,4.47
2018-04-15T05:39:37.526Z,4.43
2018-04-15T05:42:05.741Z,4.17
2018-04-15T05:44:33.194Z,4.07
2018-04-15T05:47:00.643Z,4.50
2018-04-15T05:49:28.069Z,5.03
2018-04-15T05:51:56.286Z,5.43
2018-04-15T05:54:23.716Z,5.07
2018-04-15T05:56:51.157Z,5.67
2018-04-15T05:59:19.364Z,4.70
2018-04-15T06:01:46.798Z,4.90
2018-04-15T06:04:15.025Z,4.37
2018-04-15T06:06:42.485Z,4.93
2018-04-15T06:09:09.935Z,5.37
2018-04-15T06:11:37.366Z,4.20
2018-04-15T06:14:04.815Z,4.03
2018-04-15T06:16:32.253Z,6.40
2018-04-15T06:19:00.473Z,5.47
2018-04-15T06:21:27.906Z,5.57
2018-04-15T06:23:55.353Z,5.20
2018-04-15T06:26:22.785Z,5.10
2018-04-15T06:28:50.997Z,5.00
2018-04-15T06:31:18.447Z,6.70
2018-04-15T06:33:45.886Z,6.07
2018-04-15T06:36:14.095Z,5.43
2018-04-15T06:38:41.545Z,6.00
2018-04-15T06:41:08.993Z,5.13
2018-04-15T06:43:36.438Z,5.10
2018-04-15T06:46:04.638Z,5.03
2018-04-15T06:48:32.081Z,4.33
2018-04-15T06:50:59.518Z,4.47
2018-04-15T06:53:27.738Z,7.90
2018-04-15T06:55:55.170Z,4.93
2018-04-15T06:58:22.626Z,4.13
2018-04-15T07:00:50.087Z,6.17
2018-04-15T07:03:17.518Z,6.97
2018-04-15T07:05:45.738Z,5.00
2018-04-15T07:08:13.170Z,6.87
2018-04-15T07:10:40.619Z,3.60
2018-04-15T07:13:08.058Z,3.63
2018-04-15T07:15:36.266Z,3.70
2018-04-15T07:18:03.705Z,3.33
2018-04-15T07:20:31.918Z,2.40
2018-04-15T07:22:59.357Z,2.80
2018-04-15T07:25:26.798Z,3.23
2018-04-15T07:27:54.237Z,3.13
2018-04-15T07:30:22.458Z,2.30
2018-04-15T07:32:49.881Z,2.80
2018-04-15T07:35:18.098Z,2.23
2018-04-15T07:37:45.713Z,3.30
2018-04-15T07:40:13.937Z,2.60
2018-04-15T07:42:41.376Z,2.30
2018-04-15T07:45:08.817Z,2.93
2018-04-15T07:47:36.275Z,2.00
2018-04-15T07:50:03.730Z,1.77
2018-04-15T07:52:31.161Z,2.10
2018-04-15T07:54:59.375Z,2.37
2018-04-15T07:57:26.814Z,1.93
2018-04-15T07:59:54.279Z,1.67
2018-04-15T08:02:21.763Z,2.00
2018-04-15T08:04:49.166Z,1.40
2018-04-15T08:07:17.405Z,1.73
2018-04-15T08:09:44.859Z,1.60
2018-04-15T08:12:12.315Z,1.50
2018-04-15T08:14:39.750Z,1.80
2018-04-15T08:17:07.216Z,1.43
2018-04-15T08:19:34.625Z,1.40
2018-04-15T08:22:02.085Z,1.27
2018-04-15T08:24:29.509Z,1.30
2018-04-15T08:26:56.971Z,1.10
2018-04-15T08:29:24.413Z,1.00
2018-04-15T08:31:51.853Z,1.30
2018-04-15T08:34:19.298Z,0.90
2018-04-15T08:36:46.740Z,0.90
2018-04-15T08:39:14.187Z,1.10
2018-04-15T08:41:42.405Z,1.17
2018-04-15T08:44:09.842Z,0.90
2018-04-15T08:46:37.290Z,1.00
2018-04-15T08:49:04.726Z,0.90
2018-04-15T08:51:32.954Z,0.73
2018-04-15T08:54:00.394Z,0.97
2018-04-15T08:56:27.837Z,0.90
2018-04-15T08:58:55.274Z,1.20
2018-04-15T09:01:23.502Z,1.23
2018-04-15T09:03:50.942Z,1.03
2018-04-15T09:06:18.416Z,0.90
2018-04-15T09:08:45.849Z,1.00
2018-04-15T09:11:13.294Z,0.97
2018-04-15T09:13:40.739Z,0.90
2018-04-15T09:16:08.953Z,1.10
2018-04-15T09:18:36.399Z,0.70
2018-04-15T09:21:03.837Z,0.80
2018-04-15T09:23:31.289Z,0.80
2018-04-15T09:25:58.721Z,1.00
2018-04-15T09:28:26.207Z,0.87
2018-04-15T09:31:00.190Z,1.10
2018-04-15T09:33:27.630Z,0.83
2018-04-15T09:35:55.070Z,0.80
2018-04-15T09:38:22.518Z,0.70
2018-04-15T09:40:49.949Z,0.70
2018-04-15T09:43:17.397Z,0.60
2018-04-15T09:45:45.613Z,0.60
2018-04-15T09:48:13.060Z,0.80
2018-04-15T09:50:40.498Z,0.47
2018-04-15T09:53:07.946Z,0.70
2018-04-15T09:55:36.150Z,0.90
2018-04-15T09:58:03.601Z,0.73
2018-04-15T10:00:31.041Z,0.60
2018-04-15T10:02:59.248Z,0.90
2018-04-15T10:05:26.690Z,1.00
2018-04-15T10:07:54.138Z,0.97
2018-04-15T10:10:21.571Z,1.13
2018-04-15T10:12:49.779Z,0.70
2018-04-15T10:15:17.221Z,0.70
2018-04-15T10:17:44.665Z,1.03
2018-04-15T10:20:12.882Z,0.60
2018-04-15T10:22:40.330Z,0.80
2018-04-15T10:25:07.781Z,1.67
2018-04-15T10:27:35.215Z,1.70
2018-04-15T10:30:03.422Z,0.80
2018-04-15T10:32:30.862Z,1.00
2018-04-15T10:34:58.306Z,0.80
2018-04-15T10:37:25.746Z,0.70
2018-04-15T10:39:53.957Z,2.10
2018-04-15T10:42:21.391Z,3.40
2018-04-15T10:44:49.604Z,5.83
2018-04-15T10:47:17.050Z,1.37
2018-04-15T10:49:44.497Z,1.70
2018-04-15T10:52:11.930Z,0.93
2018-04-15T10:54:40.148Z,0.90
2018-04-15T10:57:07.615Z,1.57
2018-04-15T10:59:35.066Z,1.10
2018-04-15T11:02:02.507Z,1.10
2018-04-15T11:04:29.953Z,1.30
2018-04-15T11:06:57.390Z,1.00
2018-04-15T11:09:25.661Z,0.87
2018-04-15T11:11:53.066Z,1.10
2018-04-15T11:14:20.537Z,5.63
2018-04-15T11:16:47.990Z,2.37
2018-04-15T11:19:15.433Z,1.30
2018-04-15T11:21:42.883Z,1.20
2018-04-15T11:24:10.323Z,1.30
2018-04-15T11:26:37.770Z,1.37
2018-04-15T11:29:05.971Z,1.20
2018-04-15T11:31:33.430Z,1.20
2018-04-15T11:34:00.862Z,1.30
2018-04-15T11:36:28.318Z,1.50
2018-04-15T11:38:55.753Z,2.53
2018-04-15T11:41:23.202Z,1.83
2018-04-15T11:43:50.781Z,1.20
2018-04-15T11:46:19.007Z,1.40
2018-04-15T11:48:46.438Z,1.20
2018-04-15T11:51:13.891Z,1.23
2018-04-15T11:53:41.330Z,1.23
2018-04-15T11:56:09.546Z,2.30
2018-04-15T11:58:37.038Z,1.53
2018-04-15T12:01:04.430Z,3.30
2018-04-15T12:03:31.882Z,1.50
2018-04-15T12:06:00.102Z,1.20
2018-04-15T12:08:27.541Z,1.10
2018-04-15T12:10:55.002Z,1.00
2018-04-15T12:13:22.456Z,1.33
2018-04-15T12:15:49.906Z,0.90
2018-04-15T12:18:17.360Z,1.17
2018-04-15T12:20:44.804Z,1.40
2018-04-15T12:23:12.246Z,1.10
2018-04-15T12:25:40.464Z,0.90
2018-04-15T12:28:07.921Z,1.27
2018-04-15T12:30:35.358Z,1.00
2018-04-15T12:33:02.806Z,0.90
2018-04-15T12:35:30.242Z,1.90
2018-04-15T12:37:57.688Z,0.97
2018-04-15T12:40:25.145Z,1.10
2018-04-15T12:42:52.612Z,0.97
2018-04-15T12:45:20.055Z,1.10
2018-04-15T12:47:47.495Z,0.93
2018-04-15T12:50:14.937Z,0.90
2018-04-15T12:52:42.391Z,0.90
2018-04-15T12:55:09.830Z,1.20
2018-04-15T12:57:37.281Z,1.00
2018-04-15T13:00:04.711Z,1.00
2018-04-15T13:02:32.930Z,1.00
2018-04-15T13:05:00.372Z,0.80
2018-04-15T13:07:27.842Z,1.80
2018-04-15T13:09:55.282Z,1.10
2018-04-15T13:12:22.730Z,0.90
2018-04-15T13:14:50.941Z,1.20
2018-04-15T13:17:18.373Z,1.20
2018-04-15T13:19:45.825Z,1.30
2018-04-15T13:22:13.302Z,1.10
2018-04-15T13:24:41.478Z,1.00
2018-04-15T13:27:08.918Z,1.03
2018-04-15T13:29:36.373Z,1.37
2018-04-15T13:32:03.806Z,1.03
2018-04-15T13:34:32.016Z,1.40
2018-04-15T13:36:59.450Z,1.60
2018-04-15T13:39:27.662Z,1.03
2018-04-15T13:41:55.110Z,1.60
2018-04-15T13:44:22.549Z,1.00
2018-04-15T13:46:49.979Z,1.00
2018-04-15T13:49:17.427Z,1.20
2018-04-15T13:51:44.863Z,0.97
2018-04-15T13:54:12.330Z,1.07
2018-04-15T13:56:39.758Z,0.80
2018-04-15T13:59:07.207Z,1.00
2018-04-15T14:01:34.649Z,1.60
2018-04-15T14:04:02.097Z,2.00
2018-04-15T14:06:30.290Z,1.23
2018-04-15T14:08:57.746Z,1.00
2018-04-15T14:11:25.215Z,1.20
2018-04-15T14:13:52.666Z,1.20
2018-04-15T14:16:20.108Z,1.17
2018-04-15T14:18:47.555Z,1.00
2018-04-15T14:21:15.759Z,1.00
2018-04-15T14:23:43.222Z,1.10
2018-04-15T14:26:10.662Z,1.13
2018-04-15T14:28:38.120Z,1.30
2018-04-15T14:31:05.569Z,1.10
2018-04-15T14:33:33.005Z,1.10
2018-04-15T14:36:01.231Z,1.20
2018-04-15T14:38:28.664Z,1.07
2018-04-15T14:40:56.111Z,0.83
2018-04-15T14:43:24.318Z,1.20
2018-04-15T14:45:51.814Z,1.87
2018-04-15T14:48:19.245Z,1.17
2018-04-15T14:50:46.693Z,0.90
2018-04-15T14:53:14.145Z,1.03
2018-04-15T14:55:41.585Z,1.20
2018-04-15T14:58:09.026Z,1.30
2018-04-15T15:00:36.481Z,1.00
2018-04-15T15:03:03.922Z,1.50
2018-04-15T15:05:32.142Z,1.30
2018-04-15T15:07:59.585Z,1.10
2018-04-15T15:10:27.038Z,0.93
2018-04-15T15:12:54.481Z,1.17
2018-04-15T15:15:22.692Z,1.07
2018-04-15T15:17:50.125Z,1.80
2018-04-15T15:20:17.579Z,1.10
2018-04-15T15:22:45.057Z,1.20
2018-04-15T15:25:13.231Z,1.13
2018-04-15T15:27:40.667Z,2.00
2018-04-15T15:30:08.142Z,1.60
2018-04-15T15:32:35.579Z,1.20
2018-04-15T15:35:03.032Z,1.03
2018-04-15T15:37:30.470Z,1.00
2018-04-15T15:39:58.689Z,1.43
2018-04-15T15:42:26.135Z,1.60
2018-04-15T15:44:53.572Z,1.40
2018-04-15T15:47:21.800Z,1.40
2018-04-15T15:49:49.227Z,1.30
2018-04-15T15:52:16.700Z,1.00
2018-04-15T15:54:44.158Z,1.10
2018-04-15T15:57:11.610Z,0.93
2018-04-15T15:59:39.063Z,1.17
2018-04-15T16:02:06.517Z,1.00
2018-04-15T16:04:33.957Z,1.50
2018-04-15T16:07:01.404Z,1.47
2018-04-15T16:09:29.610Z,1.33
2018-04-15T16:11:57.082Z,1.33
2018-04-15T16:14:24.526Z,1.40
2018-04-15T16:16:51.986Z,1.40
2018-04-15T16:19:19.522Z,1.33
2018-04-15T16:21:47.006Z,1.23
2018-04-15T16:24:15.198Z,1.37
2018-04-15T16:26:42.646Z,1.40
2018-04-15T16:29:10.098Z,1.20
2018-04-15T16:31:37.555Z,1.70
2018-04-15T16:34:04.998Z,3.77
2018-04-15T16:36:32.458Z,2.07
2018-04-15T16:38:59.918Z,3.40
2018-04-15T16:41:27.391Z,2.13
2018-04-15T16:43:55.593Z,2.40
2018-04-15T16:46:23.042Z,3.63
2018-04-15T16:48:50.474Z,4.03
2018-04-15T16:51:17.921Z,5.80
2018-04-15T16:53:45.354Z,6.40
2018-04-15T16:56:12.808Z,4.50
2018-04-15T16:58:40.246Z,5.63
2018-04-15T17:01:08.455Z,4.20
2018-04-15T17:03:35.906Z,2.93
2018-04-15T17:06:03.350Z,4.60
2018-04-15T17:08:31.570Z,6.10
2018-04-15T17:10:59.019Z,12.23
2018-04-15T17:13:26.466Z,10.03
2018-04-15T17:15:53.911Z,3.90
2018-04-15T17:18:21.357Z,4.57
2018-04-15T17:20:48.806Z,7.83
2018-04-15T17:23:17.025Z,5.13
2018-04-15T17:25:44.465Z,3.30
2018-04-15T17:28:11.918Z,4.13
2018-04-15T17:30:39.351Z,4.40
2018-04-15T17:33:07.562Z,3.27
2018-04-15T17:35:34.989Z,6.13
2018-04-15T17:38:02.434Z,3.87
2018-04-15T17:40:29.879Z,3.57
2018-04-15T17:42:57.336Z,3.50
2018-04-15T17:45:24.770Z,3.37
2018-04-15T17:47:52.262Z,4.30
2018-04-15T17:50:20.466Z,3.60
2018-04-15T17:52:47.976Z,4.97
2018-04-15T17:55:15.383Z,2.90
2018-04-15T17:57:42.798Z,3.10
2018-04-15T18:00:11.018Z,3.07
2018-04-15T18:02:38.514Z,3.23
2018-04-15T18:05:05.906Z,3.40
2018-04-15T18:07:33.353Z,3.20
2018-04-15T18:10:01.558Z,3.47
2018-04-15T18:12:29.010Z,3.50
2018-04-15T18:14:56.471Z,5.93
2018-04-15T18:17:23.942Z,8.53
2018-04-15T18:19:51.386Z,6.20
2018-04-15T18:22:18.822Z,5.80
2018-04-15T18:24:47.037Z,4.47
2018-04-15T18:27:14.475Z,6.07
2018-04-15T18:29:41.914Z,5.70
2018-04-15T18:32:09.383Z,5.73
2018-04-15T18:34:36.826Z,4.37
2018-04-15T18:37:05.027Z,4.40
2018-04-15T18:39:32.468Z,3.33
2018-04-15T18:41:59.902Z,3.60
2018-04-15T18:44:27.377Z,3.20
2018-04-15T18:46:54.821Z,7.90
2018-04-15T18:49:23.033Z,5.27
2018-04-15T18:51:50.493Z,5.17
2018-04-15T18:54:17.934Z,4.20
2018-04-15T18:56:45.369Z,4.87
2018-04-15T18:59:13.587Z,5.73
2018-04-15T19:01:41.026Z,4.10
2018-04-15T19:04:08.493Z,4.30
2018-04-15T19:06:35.913Z,3.30
2018-04-15T19:09:04.138Z,3.30
2018-04-15T19:11:31.576Z,3.40
2018-04-15T19:13:59.054Z,2.83
2018-04-15T19:16:26.928Z,5.10
2018-04-15T19:18:54.402Z,7.00
2018-04-15T19:21:21.831Z,5.57
2018-04-15T19:23:50.042Z,4.60
2018-04-15T19:26:17.499Z,4.97
2018-04-15T19:28:44.929Z,4.20
2018-04-15T19:31:12.392Z,3.70
2018-04-15T19:33:39.814Z,3.70
2018-04-15T19:36:07.254Z,4.17
2018-04-15T19:38:35.454Z,3.90
2018-04-15T19:41:02.923Z,3.80
2018-04-15T19:43:30.333Z,3.83
2018-04-15T19:45:58.546Z,3.20
2018-04-15T19:48:25.982Z,3.73
2018-04-15T19:50:53.430Z,3.77
2018-04-15T19:53:20.878Z,3.73
2018-04-15T19:55:49.253Z,3.60
2018-04-15T19:58:17.459Z,3.90
2018-04-15T20:00:44.940Z,3.40
2018-04-15T20:03:12.369Z,4.13
2018-04-15T20:05:39.818Z,3.77
2018-04-15T20:08:07.250Z,3.40
2018-04-15T20:10:35.458Z,4.17
2018-04-15T20:13:02.886Z,3.77
2018-04-15T20:15:31.093Z,4.63
2018-04-15T20:17:58.529Z,4.70
2018-04-15T20:20:26.743Z,4.20
2018-04-15T20:22:54.186Z,4.77
2018-04-15T20:25:21.613Z,4.47
2018-04-15T20:27:49.824Z,4.87
2018-04-15T20:30:17.257Z,4.50
2018-04-15T20:32:44.700Z,4.30
2018-04-15T20:35:12.954Z,4.80
2018-04-15T20:37:40.401Z,4.87
2018-04-15T20:40:07.838Z,4.50
2018-04-15T20:42:35.282Z,4.53
2018-04-15T20:45:02.725Z,5.40
2018-04-15T20:47:30.384Z,6.60
2018-04-15T20:49:58.567Z,5.57
2018-04-15T20:52:26.009Z,4.97
2018-04-15T20:54:53.453Z,5.67
2018-04-15T20:57:21.678Z,4.83
2018-04-15T20:59:49.109Z,4.50
2018-04-15T21:02:16.550Z,4.80
2018-04-15T21:04:43.986Z,4.90
2018-04-15T21:07:11.433Z,4.60
2018-04-15T21:09:38.875Z,4.60
2018-04-15T21:12:06.340Z,4.47
2018-04-15T21:14:33.753Z,4.00
2018-04-15T21:17:01.202Z,4.77
2018-04-15T21:19:28.642Z,6.10
2018-04-15T21:21:56.865Z,5.10
2018-04-15T21:24:24.290Z,4.07
2018-04-15T21:26:51.767Z,5.63
2018-04-15T21:29:19.930Z,4.53
2018-04-15T21:31:47.361Z,6.03
2018-04-15T21:34:15.593Z,6.83
2018-04-15T21:36:43.027Z,6.20
2018-04-15T21:39:10.470Z,6.57
2018-04-15T21:41:37.906Z,5.53
2018-04-15T21:44:06.120Z,5.83
2018-04-15T21:46:33.560Z,5.17
2018-04-15T21:49:01.010Z,4.77
2018-04-15T21:51:28.446Z,4.70
2018-04-15T21:53:56.655Z,5.43
2018-04-15T21:56:24.091Z,6.20
2018-04-15T21:58:52.317Z,4.87
2018-04-15T22:01:19.773Z,4.93
2018-04-15T22:03:47.214Z,5.97
2018-04-15T22:06:14.654Z,5.37
2018-04-15T22:08:42.102Z,6.30
2018-04-15T22:11:09.546Z,5.83
2018-04-15T22:13:37.760Z,5.73
2018-04-15T22:16:05.198Z,5.23
2018-04-15T22:18:32.646Z,6.30
2018-04-15T22:21:00.082Z,5.23
2018-04-15T22:23:28.298Z,5.30
2018-04-15T22:25:55.752Z,6.47
2018-04-15T22:28:23.204Z,7.63
2018-04-15T22:30:50.645Z,6.57
2018-04-15T22:33:18.110Z,11.87
2018-04-15T22:35:45.546Z,8.20
2018-04-15T22:38:13.759Z,9.20
2018-04-15T22:40:41.236Z,9.73
2018-04-15T22:43:08.680Z,8.70
2018-04-15T22:45:36.125Z,7.23
2018-04-15T22:48:04.484Z,7.67
2018-04-15T22:50:37.729Z,6.50
2018-04-15T22:53:05.177Z,6.53
2018-04-15T22:55:32.635Z,7.27
2018-04-15T22:58:00.075Z,6.07
2018-04-15T23:00:27.522Z,6.23
2018-04-15T23:02:54.966Z,8.10
2018-04-15T23:05:22.410Z,8.20
2018-04-15T23:07:49.883Z,9.73
2018-04-15T23:10:17.342Z,11.23
2018-04-15T23:12:44.776Z,8.50
2018-04-15T23:15:13.015Z,8.03
2018-04-15T23:17:41.213Z,8.17
2018-04-15T23:20:08.661Z,7.20
2018-04-15T23:22:36.112Z,6.63
2018-04-15T23:25:03.554Z,6.63
2018-04-15T23:27:31.011Z,7.03
2018-04-15T23:29:58.465Z,7.13
2018-04-15T23:32:25.921Z,5.30
2018-04-15T23:34:53.369Z,5.97
2018-04-15T23:37:20.818Z,6.00
2018-04-15T23:39:48.278Z,6.87
2018-04-15T23:42:15.728Z,6.50
2018-04-15T23:44:43.174Z,6.33
2018-04-15T23:47:10.598Z,7.70
2018-04-15T23:49:38.058Z,9.00
2018-04-15T23:52:06.267Z,8.30
2018-04-15T23:54:33.704Z,8.50
2018-04-15T23:57:01.945Z,8.67
2018-04-15T23:59:29.386Z,6.47
